Time;durP1;ratioP1;P1;durP2;ratioP2;P2;SDS_P1;SDS_P2;PMS_P1;PMS_P2;Temp;Humidity;BMP_temperature;BMP_pressure;BME280_temperature;BME280_humidity;BME280_pressure;Samples;Min_cycle;Max_cycle;Signal;HPM_P1;HPM_P2
2022/08/16 00:01:48;;;;;;;0.47;0.40;;;;;;;29.65;38.99;98494.69;5116007;28;20046;-59
2022/08/16 00:04:14;;;;;;;0.57;0.50;;;;;;;29.66;38.98;98490.63;5115692;28;20940;-60
2022/08/16 00:06:40;;;;;;;0.68;0.50;;;;;;;29.67;38.82;98497.84;5115883;28;20043;-59
2022/08/16 00:09:06;;;;;;;0.85;0.70;;;;;;;29.67;39.04;98497.84;5115991;28;20495;-59
2022/08/16 00:11:32;;;;;;;0.90;0.52;;;;;;;29.67;38.91;98499.88;5115907;28;20130;-59
2022/08/16 00:13:58;;;;;;;0.88;0.60;;;;;;;29.67;38.67;98494.22;5115959;28;20122;-59
2022/08/16 00:16:26;;;;;;;0.90;0.65;;;;;;;29.66;38.74;98498.28;5115759;28;20047;-59
2022/08/16 00:18:51;;;;;;;0.65;0.60;;;;;;;29.65;39.13;98494.69;5115649;28;20518;-58
2022/08/16 00:21:17;;;;;;;0.63;0.50;;;;;;;29.66;38.98;98496.25;5115625;28;20123;-59
2022/08/16 00:23:42;;;;;;;0.50;0.40;;;;;;;29.67;38.69;98497.03;5115503;28;20053;-59
2022/08/16 00:26:08;;;;;;;0.77;0.65;;;;;;;29.66;38.99;98496.25;5115760;28;20040;-59
2022/08/16 00:28:33;;;;;;;0.80;0.50;;;;;;;29.67;38.84;98497.03;5113186;28;20051;-59
2022/08/16 00:30:58;;;;;;;1.90;0.60;;;;;;;29.67;39.03;98495.00;5115726;28;20047;-59
2022/08/16 00:33:24;;;;;;;0.52;0.50;;;;;;;29.66;39.07;98493.44;5115571;28;20066;-59
2022/08/16 00:35:49;;;;;;;0.80;0.60;;;;;;;29.66;38.97;98495.47;5115444;28;20126;-59
2022/08/16 00:38:14;;;;;;;0.40;0.40;;;;;;;29.64;39.20;98500.75;5111490;28;20400;-59
2022/08/16 00:40:49;;;;;;;0.80;0.60;;;;;;;29.67;38.84;98513.97;5112157;28;20449;-59
2022/08/16 00:43:19;;;;;;;0.70;0.50;;;;;;;29.67;38.92;98505.50;5112167;28;20523;-59
2022/08/16 00:45:52;;;;;;;0.63;0.50;;;;;;;29.66;39.19;98501.91;5112139;28;20530;-59
2022/08/16 00:48:17;;;;;;;1.95;0.50;;;;;;;29.66;39.14;98503.94;5112066;28;20044;-59
2022/08/16 00:50:44;;;;;;;0.50;0.50;;;;;;;29.66;39.12;98495.47;5112011;28;20388;-59
2022/08/16 00:53:14;;;;;;;0.70;0.55;;;;;;;29.65;39.16;98494.69;5112096;28;20521;-59
2022/08/16 00:55:45;;;;;;;0.65;0.50;;;;;;;29.66;39.23;98492.66;5111951;28;20044;-59
2022/08/16 00:58:12;;;;;;;0.80;0.50;;;;;;;29.67;38.97;98488.59;5111963;28;20138;-59
2022/08/16 01:00:38;;;;;;;0.70;0.60;;;;;;;29.63;39.15;98485.09;5092019;28;20071;-59
2022/08/16 01:03:08;;;;;;;1.00;0.60;;;;;;;29.66;38.98;98489.84;5111585;28;20089;-59
2022/08/16 01:05:35;;;;;;;0.68;0.50;;;;;;;29.66;39.06;98490.63;5111893;28;20042;-59
2022/08/16 01:08:03;;;;;;;0.73;0.60;;;;;;;29.65;39.17;98491.06;5111781;28;20419;-60
2022/08/16 01:10:30;;;;;;;0.98;0.68;;;;;;;29.66;39.15;98489.84;5111667;28;20118;-59
2022/08/16 01:12:57;;;;;;;0.70;0.50;;;;;;;29.65;39.08;98489.06;5111675;28;20411;-59
2022/08/16 01:15:24;;;;;;;1.15;0.60;;;;;;;29.66;38.82;98490.63;5111691;28;20047;-59
2022/08/16 01:17:49;;;;;;;1.73;0.57;;;;;;;29.66;39.08;98490.63;5111622;28;20048;-59
2022/08/16 01:20:18;;;;;;;0.70;0.52;;;;;;;29.66;38.98;98484.19;5111687;28;20126;-59
2022/08/16 01:22:56;;;;;;;0.50;0.50;;;;;;;29.65;39.13;98480.59;5111216;28;20048;-59
2022/08/16 01:25:36;;;;;;;1.10;0.68;;;;;;;29.66;39.27;98489.84;5111398;28;20130;-59
2022/08/16 01:28:06;;;;;;;0.40;0.40;;;;;;;29.67;39.23;98492.19;5111412;28;20131;-59
2022/08/16 01:30:39;;;;;;;0.60;0.50;;;;;;;29.66;38.96;98485.00;5111584;28;20055;-59
2022/08/16 01:33:05;;;;;;;;;;;;;;;29.72;39.16;98491.63;5112044;28;20036;-59
2022/08/16 01:35:38;;;;;;;0.90;0.60;;;;;;;29.69;39.18;98489.69;5111354;28;20002;-59
2022/08/16 01:38:35;;;;;;;0.52;0.45;;;;;;;29.67;39.00;98488.59;5111178;28;20083;-59
2022/08/16 01:41:11;;;;;;;0.80;0.50;;;;;;;29.66;39.00;98489.84;5090656;28;20042;-59
2022/08/16 01:43:40;;;;;;;0.80;0.60;;;;;;;29.64;39.21;98487.47;5111145;28;20048;-59
2022/08/16 01:46:27;;;;;;;0.77;0.60;;;;;;;29.64;39.12;98495.91;5111276;28;20085;-59
2022/08/16 01:49:00;;;;;;;0.63;0.45;;;;;;;29.66;38.93;98484.19;5109818;28;20054;-58
2022/08/16 01:51:26;;;;;;;;;;;;;;;29.71;38.80;98492.06;5108992;28;20043;-59
2022/08/16 01:53:51;;;;;;;0.88;0.60;;;;;;;29.68;39.13;98490.94;5111212;28;20375;-59
2022/08/16 01:56:18;;;;;;;0.60;0.50;;;;;;;29.65;39.04;98494.69;5110765;28;20127;-59
2022/08/16 01:58:43;;;;;;;0.90;0.65;;;;;;;29.65;39.06;98502.34;5110710;28;20049;-59
2022/08/16 02:01:09;;;;;;;0.57;0.45;;;;;;;29.64;39.25;98497.94;5110943;28;20126;-59
2022/08/16 02:03:35;;;;;;;0.85;0.47;;;;;;;29.65;39.16;98497.50;5110710;28;20047;-59
2022/08/16 02:06:00;;;;;;;0.90;0.70;;;;;;;29.64;38.99;98498.72;5110730;28;20065;-59
2022/08/16 02:08:25;;;;;;;0.88;0.57;;;;;;;29.65;38.96;98499.50;5110658;28;20085;-59
2022/08/16 02:10:53;;;;;;;1.05;0.60;;;;;;;29.64;39.29;98507.19;5110731;28;20031;-59
2022/08/16 02:13:19;;;;;;;1.27;0.60;;;;;;;29.66;39.05;98498.28;5110587;28;20503;-59
2022/08/16 02:15:45;;;;;;;0.80;0.60;;;;;;;29.62;39.29;98492.78;5110668;28;20071;-59
2022/08/16 02:18:11;;;;;;;0.68;0.57;;;;;;;29.64;38.84;98507.19;5110417;28;20453;-59
2022/08/16 02:20:37;;;;;;;0.45;0.45;;;;;;;29.63;39.25;98514.06;5110359;28;20042;-59
2022/08/16 02:23:04;;;;;;;0.82;0.52;;;;;;;29.65;39.30;98517.25;5110322;28;20043;-58
2022/08/16 02:25:30;;;;;;;0.65;0.50;;;;;;;29.64;38.99;98515.63;5110500;28;20048;-59
2022/08/16 02:27:56;;;;;;;0.63;0.50;;;;;;;29.65;38.96;98514.44;5110496;28;20434;-59
2022/08/16 02:30:24;;;;;;;0.50;0.50;;;;;;;29.64;39.04;98507.19;5110247;28;20043;-59
2022/08/16 02:32:50;;;;;;;0.88;0.70;;;;;;;29.65;39.24;98513.59;5110443;28;20071;-59
2022/08/16 02:35:16;;;;;;;0.95;0.65;;;;;;;29.64;38.91;98514.84;5110350;28;20074;-59
2022/08/16 02:37:41;;;;;;;0.60;0.50;;;;;;;29.64;38.96;98515.63;5110506;28;20044;-59
2022/08/16 02:40:09;;;;;;;0.93;0.60;;;;;;;29.62;38.94;98512.50;5110451;28;20071;-59
2022/08/16 02:42:35;;;;;;;0.93;0.70;;;;;;;29.66;39.23;98512.38;5110284;28;20043;-59
2022/08/16 02:45:00;;;;;;;1.50;0.60;;;;;;;29.65;38.99;98511.59;5110257;28;20103;-59
2022/08/16 02:47:25;;;;;;;1.27;0.70;;;;;;;29.66;39.13;98509.56;5110228;28;20952;-59
2022/08/16 02:49:51;;;;;;;0.80;0.60;;;;;;;29.65;39.13;98511.59;5110175;28;20050;-58
2022/08/16 02:52:16;;;;;;;0.70;0.50;;;;;;;29.66;38.84;98518.03;5109879;28;20131;-59
2022/08/16 02:54:42;;;;;;;0.68;0.50;;;;;;;29.65;39.15;98517.25;5109977;28;20120;-59
2022/08/16 02:57:07;;;;;;;1.00;0.60;;;;;;;29.66;38.91;98515.22;5091868;28;20157;-59
2022/08/16 02:59:33;;;;;;;0.77;0.68;;;;;;;29.65;39.32;98514.44;5109660;28;20506;-59
2022/08/16 03:01:58;;;;;;;0.82;0.60;;;;;;;29.63;39.06;98507.66;5109940;28;20093;-59
2022/08/16 03:04:24;;;;;;;0.77;0.60;;;;;;;29.64;39.01;98514.84;5109816;28;20478;-59
2022/08/16 03:06:50;;;;;;;0.70;0.60;;;;;;;29.64;39.14;98512.81;5109624;28;20511;-59
2022/08/16 03:09:16;;;;;;;0.80;0.55;;;;;;;29.65;39.16;98514.44;5109655;28;20188;-59
2022/08/16 03:11:43;;;;;;;1.00;0.73;;;;;;;29.65;39.01;98507.97;5110060;28;20127;-59
2022/08/16 03:14:10;;;;;;;0.60;0.50;;;;;;;29.63;39.08;98507.66;5109985;28;20035;-59
2022/08/16 03:16:35;;;;;;;0.82;0.65;;;;;;;29.65;39.28;98508.78;5109725;28;20055;-59
2022/08/16 03:19:01;;;;;;;0.70;0.63;;;;;;;29.64;39.03;98500.75;5109609;28;20051;-59
2022/08/16 03:21:27;;;;;;;1.25;0.70;;;;;;;29.64;38.79;98498.72;5109503;28;20049;-59
2022/08/16 03:23:53;;;;;;;0.50;0.50;;;;;;;29.64;38.94;98504.38;5109690;28;20100;-59
2022/08/16 03:26:19;;;;;;;0.98;0.65;;;;;;;29.64;39.02;98498.72;5109601;28;20036;-59
2022/08/16 03:28:45;;;;;;;0.85;0.60;;;;;;;29.65;39.08;98500.31;5109549;28;20055;-59
2022/08/16 03:31:11;;;;;;;1.20;0.70;;;;;;;29.62;39.13;98492.78;5109512;28;20054;-59
2022/08/16 03:33:36;;;;;;;0.70;0.57;;;;;;;29.64;39.06;98497.94;5109439;28;20048;-57
2022/08/16 03:36:04;;;;;;;0.98;0.60;;;;;;;29.63;39.24;98493.56;5109479;28;20054;-57
2022/08/16 03:38:30;;;;;;;0.70;0.60;;;;;;;29.64;39.23;98498.72;5109554;28;20040;-57
2022/08/16 03:40:57;;;;;;;0.90;0.70;;;;;;;29.64;39.08;98493.09;5109520;28;20046;-57
2022/08/16 03:43:23;;;;;;;0.60;0.50;;;;;;;29.64;39.16;98487.47;5107429;28;20044;-57
2022/08/16 03:45:50;;;;;;;0.88;0.60;;;;;;;29.64;39.07;98492.31;5109443;28;20043;-56
2022/08/16 03:48:16;;;;;;;0.80;0.70;;;;;;;29.64;38.97;98492.31;5109254;28;20092;-57
2022/08/16 03:50:42;;;;;;;0.77;0.57;;;;;;;29.64;39.22;98487.47;5109386;28;20403;-57
2022/08/16 03:53:08;;;;;;;0.95;0.70;;;;;;;29.63;38.99;98483.06;5109164;28;20053;-56
2022/08/16 03:55:33;;;;;;;0.60;0.60;;;;;;;29.65;39.21;98491.88;5109325;28;20069;-56
2022/08/16 03:57:59;;;;;;;0.95;0.70;;;;;;;29.64;39.03;98486.66;5109453;28;20118;-56
2022/08/16 04:00:29;;;;;;;1.17;0.70;;;;;;;29.64;39.14;98492.31;5109134;28;20057;-57
2022/08/16 04:02:57;;;;;;;0.55;0.52;;;;;;;29.64;39.20;98487.47;5109019;28;20048;-57
2022/08/16 04:05:23;;;;;;;0.70;0.52;;;;;;;29.63;39.28;98496.38;5109005;28;20126;-56
2022/08/16 04:07:49;;;;;;;0.90;0.70;;;;;;;29.64;39.13;98495.91;5109149;28;20118;-56
2022/08/16 04:10:15;;;;;;;0.63;0.52;;;;;;;29.63;38.90;98488.72;5108955;28;20468;-56
2022/08/16 04:12:42;;;;;;;0.98;0.70;;;;;;;29.65;38.99;98489.06;5110608;28;20089;-57
2022/08/16 04:15:11;;;;;;;0.95;0.60;;;;;;;29.62;39.37;98486.34;5112537;28;20131;-59
2022/08/16 04:17:37;;;;;;;0.88;0.60;;;;;;;29.65;39.21;98488.25;5112301;28;20036;-59
2022/08/16 04:20:07;;;;;;;0.70;0.50;;;;;;;29.62;39.14;98483.53;5112408;28;20054;-59
2022/08/16 04:22:32;;;;;;;0.50;0.50;;;;;;;29.63;39.22;98487.91;5112293;28;20067;-59
2022/08/16 04:24:58;;;;;;;1.00;0.70;;;;;;;29.63;39.21;98487.91;5112387;28;20098;-59
2022/08/16 04:27:24;;;;;;;0.80;0.60;;;;;;;29.66;39.07;98498.28;5112302;28;20054;-59
2022/08/16 04:29:50;;;;;;;0.90;0.63;;;;;;;29.64;39.18;98497.94;5112171;28;20035;-59
2022/08/16 04:32:15;;;;;;;0.68;0.60;;;;;;;29.64;39.26;98497.94;5112380;28;20083;-59
2022/08/16 04:34:41;;;;;;;1.00;0.70;;;;;;;29.64;39.25;98486.66;5112248;28;20074;-59
2022/08/16 04:37:06;;;;;;;1.02;0.70;;;;;;;29.64;39.37;98495.13;5112410;28;20051;-59
2022/08/16 04:39:34;;;;;;;0.77;0.60;;;;;;;29.64;39.03;98497.94;5112243;28;20040;-56
2022/08/16 04:42:00;;;;;;;1.35;0.80;;;;;;;29.65;39.25;98497.50;5112228;28;20051;-57
2022/08/16 04:44:25;;;;;;;0.98;0.60;;;;;;;29.63;39.32;98497.16;5111973;28;20051;-56
2022/08/16 04:46:51;;;;;;;0.88;0.70;;;;;;;29.64;39.12;98501.53;5112045;28;20514;-57
2022/08/16 04:49:17;;;;;;;0.60;0.50;;;;;;;29.65;39.13;98510.78;5112051;28;20052;-56
2022/08/16 04:51:42;;;;;;;0.88;0.60;;;;;;;29.64;39.16;98520.50;5112064;28;20051;-56
2022/08/16 04:54:08;;;;;;;0.90;0.70;;;;;;;29.63;39.47;98519.72;5111974;28;20126;-57
2022/08/16 04:56:34;;;;;;;0.77;0.60;;;;;;;29.63;39.29;98522.53;5112087;28;20048;-56
2022/08/16 04:59:00;;;;;;;0.95;0.68;;;;;;;29.64;39.17;98520.50;5111875;28;20055;-56
2022/08/16 05:01:26;;;;;;;1.02;0.70;;;;;;;29.64;39.22;98520.50;5112025;28;20122;-56
2022/08/16 05:03:52;;;;;;;1.10;0.60;;;;;;;29.62;39.29;98520.16;5111817;28;20046;-57
2022/08/16 05:06:17;;;;;;;0.70;0.57;;;;;;;29.62;39.24;98523.78;5111797;28;20047;-57
2022/08/16 05:08:43;;;;;;;0.90;0.60;;;;;;;29.64;39.59;98531.75;5111538;28;20031;-57
2022/08/16 05:11:10;;;;;;;0.82;0.60;;;;;;;29.62;39.28;98526.59;5108231;28;20036;-57
2022/08/16 05:13:38;;;;;;;0.85;0.60;;;;;;;29.65;39.28;98533.34;5111626;28;20035;-56
2022/08/16 05:16:04;;;;;;;1.33;0.80;;;;;;;29.64;39.29;98531.75;5111729;28;20055;-56
2022/08/16 05:18:30;;;;;;;1.05;0.70;;;;;;;29.64;39.61;98526.13;5111349;28;20403;-57
2022/08/16 05:20:55;;;;;;;0.90;0.60;;;;;;;29.64;39.54;98514.84;5111536;28;20043;-57
2022/08/16 05:23:21;;;;;;;0.98;0.70;;;;;;;29.63;39.41;98516.09;5110862;28;20414;-57
2022/08/16 05:25:47;;;;;;;0.90;0.60;;;;;;;29.63;39.45;98507.66;5111283;28;20534;-57
2022/08/16 05:28:13;;;;;;;0.73;0.60;;;;;;;29.64;39.39;98515.63;5111587;28;20054;-57
2022/08/16 05:30:39;;;;;;;0.88;0.60;;;;;;;29.64;39.29;98520.50;5111329;28;20053;-56
2022/08/16 05:33:05;;;;;;;0.73;0.63;;;;;;;29.64;39.51;98528.94;5111375;28;20031;-56
2022/08/16 05:35:31;;;;;;;1.02;0.60;;;;;;;29.64;39.68;98531.75;5111381;28;20043;-57
2022/08/16 05:37:56;;;;;;;0.57;0.50;;;;;;;29.64;39.44;98537.41;5111304;28;20032;-57
2022/08/16 05:40:22;;;;;;;1.20;0.70;;;;;;;29.63;39.26;98535.84;5111353;28;20048;-57
2022/08/16 05:42:47;;;;;;;0.50;0.50;;;;;;;29.64;39.39;98543.81;5111170;28;20119;-56
2022/08/16 05:45:13;;;;;;;0.98;0.70;;;;;;;29.65;39.30;98536.97;5111128;28;20050;-57
2022/08/16 05:47:39;;;;;;;0.63;0.55;;;;;;;29.64;39.62;98532.56;5111344;28;20044;-56
2022/08/16 05:50:06;;;;;;;0.90;0.70;;;;;;;29.66;39.54;98534.94;5111117;28;20130;-57
2022/08/16 05:52:31;;;;;;;1.00;0.60;;;;;;;29.68;39.48;98532.44;5111092;28;20100;-56
2022/08/16 05:54:57;;;;;;;1.08;0.68;;;;;;;29.67;39.52;98530.88;5110968;28;20039;-57
2022/08/16 05:57:23;;;;;;;0.68;0.50;;;;;;;29.69;39.72;98534.00;5111106;28;20035;-56
2022/08/16 05:59:48;;;;;;;0.77;0.60;;;;;;;29.69;39.46;98539.66;5110808;28;20380;-57
2022/08/16 06:02:14;;;;;;;0.95;0.57;;;;;;;29.66;39.40;98537.75;5110861;28;20100;-57
2022/08/16 06:04:40;;;;;;;0.98;0.68;;;;;;;29.52;39.90;98537.00;5110873;28;20079;-57
2022/08/16 06:07:06;;;;;;;1.17;0.50;;;;;;;29.46;39.42;98547.25;5110730;28;20407;-56
2022/08/16 06:09:32;;;;;;;0.85;0.70;;;;;;;29.37;39.14;98550.00;5110858;28;20115;-56
2022/08/16 06:12:04;;;;;;;1.17;0.73;;;;;;;29.26;39.15;98552.38;5110854;28;20120;-57
2022/08/16 06:14:30;;;;;;;0.85;0.63;;;;;;;29.15;39.71;98551.91;5110842;28;20044;-57
2022/08/16 06:16:56;;;;;;;0.70;0.60;;;;;;;29.01;40.64;98551.16;5110492;28;20040;-57
2022/08/16 06:19:22;;;;;;;0.50;0.50;;;;;;;28.94;40.67;98545.00;5110713;28;20052;-56
2022/08/16 06:21:47;;;;;;;1.00;0.70;;;;;;;28.90;40.71;98552.72;5110684;28;20059;-56
2022/08/16 06:24:13;;;;;;;1.13;0.70;;;;;;;28.88;41.04;98547.53;5110596;28;20056;-56
2022/08/16 06:26:39;;;;;;;0.98;0.60;;;;;;;28.87;41.28;98548.00;5110359;28;20449;-57
2022/08/16 06:29:05;;;;;;;1.02;0.63;;;;;;;28.87;41.16;98548.78;5110214;28;20055;-56
2022/08/16 06:31:30;;;;;;;0.77;0.60;;;;;;;28.89;40.33;98551.16;5110256;28;20035;-56
2022/08/16 06:33:56;;;;;;;0.77;0.60;;;;;;;28.85;40.82;98542.00;5110436;28;20441;-56
2022/08/16 06:36:22;;;;;;;1.48;0.70;;;;;;;28.79;40.86;98545.41;5109703;28;20514;-56
2022/08/16 06:38:49;;;;;;;0.90;0.70;;;;;;;28.72;40.95;98544.81;5110248;28;20505;-57
2022/08/16 06:41:15;;;;;;;1.63;0.70;;;;;;;28.69;40.96;98542.91;5110281;28;20044;-56
2022/08/16 06:43:40;;;;;;;0.90;0.60;;;;;;;28.67;40.97;98542.59;5109926;28;20139;-56
2022/08/16 06:46:09;;;;;;;0.90;0.60;;;;;;;28.67;40.54;98542.59;5110163;28;20443;-56
2022/08/16 06:48:36;;;;;;;0.68;0.60;;;;;;;28.68;40.78;98542.13;5102977;28;20055;-56
2022/08/16 06:51:04;;;;;;;1.17;0.70;;;;;;;28.69;40.63;98542.91;5098932;28;20130;-57
2022/08/16 06:53:32;;;;;;;0.70;0.60;;;;;;;28.71;40.49;98540.44;5130721;28;20101;-56
2022/08/16 06:55:58;;;;;;;0.90;0.70;;;;;;;28.72;40.38;98539.19;5130538;28;20039;-57
2022/08/16 06:58:23;;;;;;;0.60;0.50;;;;;;;28.77;40.28;98533.78;5129424;28;20049;-56
2022/08/16 07:00:48;;;;;;;0.52;0.50;;;;;;;28.79;40.08;98525.72;5109743;28;20044;-57
2022/08/16 07:03:14;;;;;;;0.70;0.63;;;;;;;28.82;40.00;98526.03;5109668;28;20560;-57
2022/08/16 07:05:39;;;;;;;0.90;0.70;;;;;;;28.81;39.93;98524.47;5109685;28;20477;-57
2022/08/16 07:08:05;;;;;;;0.60;0.60;;;;;;;28.81;40.00;98522.44;5109447;28;20126;-57
2022/08/16 07:10:30;;;;;;;1.15;0.63;;;;;;;28.81;39.91;98525.25;5123661;28;20059;-57
2022/08/16 07:12:56;;;;;;;1.02;0.70;;;;;;;28.81;39.72;98530.88;5114769;28;20059;-57
2022/08/16 07:15:22;;;;;;;1.40;0.60;;;;;;;28.81;39.60;98528.06;5098586;28;20399;-59
2022/08/16 07:17:48;;;;;;;0.65;0.52;;;;;;;28.77;39.88;98527.38;5095491;28;20073;-59
2022/08/16 07:20:14;;;;;;;1.30;0.68;;;;;;;28.76;39.81;98531.44;5088512;28;20051;-59
2022/08/16 07:22:41;;;;;;;0.80;0.60;;;;;;;28.79;39.97;98524.91;5108818;28;20109;-58
2022/08/16 07:25:09;;;;;;;1.13;0.80;;;;;;;28.76;39.83;98529.41;5093388;28;20044;-58
2022/08/16 07:27:34;;;;;;;1.30;0.80;;;;;;;28.72;39.38;98522.31;5097552;28;20131;-58
2022/08/16 07:30:00;;;;;;;5.07;1.50;;;;;;;28.69;39.55;98523.22;5105371;28;20040;-59
2022/08/16 07:32:27;;;;;;;4.13;2.25;;;;;;;28.59;39.68;98527.16;5100630;28;20044;-59
2022/08/16 07:34:52;;;;;;;5.20;2.88;;;;;;;28.47;40.38;98529.50;5096313;28;20044;-59
2022/08/16 07:37:18;;;;;;;6.13;3.20;;;;;;;28.34;40.54;98531.53;5091452;28;20396;-59
2022/08/16 07:39:43;;;;;;;6.43;2.90;;;;;;;28.25;40.56;98531.38;5091771;28;20086;-59
2022/08/16 07:42:10;;;;;;;6.05;3.45;;;;;;;28.21;40.64;98537.09;5088772;28;20482;-58
2022/08/16 07:44:36;;;;;;;7.38;3.22;;;;;;;28.16;40.66;98531.25;5088216;28;20101;-59
2022/08/16 07:47:01;;;;;;;6.40;3.38;;;;;;;28.10;40.72;98535.84;5090333;28;20056;-58
2022/08/16 07:49:26;;;;;;;7.35;3.42;;;;;;;28.07;40.76;98536.72;5104432;28;20418;-58
2022/08/16 07:51:52;;;;;;;7.40;4.00;;;;;;;28.02;41.05;98529.63;5103796;28;20040;-58
2022/08/16 07:54:18;;;;;;;9.93;3.42;;;;;;;28.02;41.40;98524.00;5081804;28;20040;-58
2022/08/16 07:56:43;;;;;;;6.22;3.20;;;;;;;28.03;41.51;98522.00;5079979;28;20044;-58
2022/08/16 07:59:09;;;;;;;5.97;3.22;;;;;;;27.97;41.41;98522.53;5098376;28;20647;-58
2022/08/16 08:01:34;;;;;;;10.32;3.40;;;;;;;28.01;41.59;98530.09;5092138;28;20044;-58
2022/08/16 08:04:01;;;;;;;6.30;3.53;;;;;;;27.96;41.18;98525.78;5103120;28;20509;-58
2022/08/16 08:06:29;;;;;;;10.88;4.10;;;;;;;27.91;41.29;98518.69;5092301;28;20388;-59
2022/08/16 08:08:55;;;;;;;14.23;7.43;;;;;;;27.90;41.42;98524.75;5092264;28;20449;-58
2022/08/16 08:11:22;;;;;;;10.50;7.70;;;;;;;27.92;41.35;98531.50;5094149;28;20048;-59
2022/08/16 08:13:49;;;;;;;11.43;6.47;;;;;;;27.91;41.18;98515.09;5100503;28;20421;-59
2022/08/16 08:16:14;;;;;;;9.93;5.85;;;;;;;27.94;41.49;98517.81;5098316;28;20043;-59
2022/08/16 08:18:39;;;;;;;8.20;5.35;;;;;;;27.91;41.29;98510.25;5099309;28;20048;-58
2022/08/16 08:21:07;;;;;;;9.27;4.75;;;;;;;27.89;40.98;98520.38;5101590;28;20058;-59
2022/08/16 08:23:35;;;;;;;9.25;4.32;;;;;;;27.81;40.95;98511.34;5082900;28;20036;-57
2022/08/16 08:26:02;;;;;;;6.63;3.78;;;;;;;27.87;40.67;98514.41;5091344;28;20040;-58
2022/08/16 08:28:30;;;;;;;6.78;3.80;;;;;;;27.81;40.71;98507.75;5099087;28;20069;-58
2022/08/16 08:30:56;;;;;;;6.30;4.03;;;;;;;27.75;41.17;98510.31;5118811;28;20054;-59
2022/08/16 08:33:22;;;;;;;8.07;4.00;;;;;;;27.73;41.35;98512.78;5111977;28;20055;-58
2022/08/16 08:35:47;;;;;;;8.27;3.95;;;;;;;27.73;41.16;98512.00;5111829;28;20130;-58
2022/08/16 08:38:12;;;;;;;7.07;3.63;;;;;;;27.76;41.41;98520.31;5104508;28;20047;-59
2022/08/16 08:40:38;;;;;;;9.23;3.85;;;;;;;27.81;41.26;98514.16;5084535;28;20044;-58
2022/08/16 08:43:04;;;;;;;5.80;3.60;;;;;;;27.85;41.14;98514.84;5071409;28;20036;-58
2022/08/16 08:45:29;;;;;;;10.27;3.80;;;;;;;27.82;41.24;98510.13;5071023;28;20098;-58
2022/08/16 08:47:56;;;;;;;8.95;3.90;;;;;;;27.84;41.23;98512.47;5090831;28;20046;-58
2022/08/16 08:50:23;;;;;;;7.63;3.67;;;;;;;27.87;41.23;98508.78;5091482;28;20040;-59
2022/08/16 08:52:50;;;;;;;6.82;3.38;;;;;;;27.87;41.32;98501.16;5091305;28;20044;-59
2022/08/16 08:55:17;;;;;;;7.25;4.07;;;;;;;27.90;40.94;98500.25;5095576;28;20080;-58
2022/08/16 08:57:46;;;;;;;5.25;2.97;;;;;;;27.91;40.96;98493.38;5110746;28;20465;-58
2022/08/16 09:00:14;;;;;;;5.65;3.40;;;;;;;27.98;40.85;98495.22;5111471;28;20043;-59
2022/08/16 09:02:41;;;;;;;6.15;3.20;;;;;;;27.95;40.94;98485.66;5111360;28;20040;-58
2022/08/16 09:05:07;;;;;;;7.50;3.10;;;;;;;27.90;41.01;98486.19;5101949;28;20044;-58
2022/08/16 09:07:32;;;;;;;6.90;3.17;;;;;;;27.97;40.97;98483.19;5099851;28;20059;-59
2022/08/16 09:09:58;;;;;;;7.30;3.30;;;;;;;27.96;40.78;98475.97;5090941;28;20456;-58
2022/08/16 09:12:24;;;;;;;8.52;3.65;;;;;;;28.05;40.78;98478.13;5091270;28;20072;-58
2022/08/16 09:14:49;;;;;;;6.28;3.15;;;;;;;28.06;40.47;98478.91;5090609;28;20538;-58
2022/08/16 09:17:15;;;;;;;7.32;3.17;;;;;;;28.05;40.58;98478.13;5090938;28;20048;-58
2022/08/16 09:19:41;;;;;;;13.57;3.50;;;;;;;28.08;40.43;98474.44;5090660;28;20093;-58
2022/08/16 09:22:08;;;;;;;8.73;3.30;;;;;;;28.12;40.48;98474.31;5090888;28;20492;-59
2022/08/16 09:24:34;;;;;;;8.88;3.00;;;;;;;28.12;40.29;98472.28;5090688;28;20047;-58
2022/08/16 09:26:59;;;;;;;11.40;3.20;;;;;;;28.17;40.48;98465.34;5091135;28;20055;-58
2022/08/16 09:29:25;;;;;;;6.15;3.08;;;;;;;28.18;40.42;98464.88;5090659;28;20040;-58
2022/08/16 09:31:50;;;;;;;8.60;3.28;;;;;;;28.19;40.26;98471.28;5090847;28;20040;-58
2022/08/16 09:34:16;;;;;;;5.22;3.00;;;;;;;28.19;40.15;98469.25;5090619;28;20044;-59
2022/08/16 09:36:42;;;;;;;9.50;3.40;;;;;;;28.18;40.13;98464.09;5092982;28;20059;-58
2022/08/16 09:39:08;;;;;;;7.15;3.10;;;;;;;28.23;39.95;98471.97;5099293;28;20420;-58
2022/08/16 09:41:34;;;;;;;5.78;3.10;;;;;;;28.29;40.01;98460.94;5071347;28;20049;-58
2022/08/16 09:44:02;;;;;;;6.93;3.42;;;;;;;28.27;39.89;98460.59;5090595;28;20192;-58
2022/08/16 09:46:27;;;;;;;7.38;3.30;;;;;;;28.27;39.72;98455.78;5088703;28;20534;-59
2022/08/16 09:48:53;;;;;;;8.82;3.45;;;;;;;28.32;39.88;98446.03;5090613;28;20036;-59
2022/08/16 09:51:19;;;;;;;5.22;2.70;;;;;;;28.35;39.97;98451.53;5090545;28;20043;-58
2022/08/16 09:53:46;;;;;;;8.48;3.33;;;;;;;28.34;39.62;98449.94;5090647;28;20196;-59
2022/08/16 09:56:32;;;;;;;7.05;3.00;;;;;;;28.39;39.80;98448.63;5090226;28;20046;-58
2022/08/16 09:58:59;;;;;;;7.05;3.20;;;;;;;28.41;39.57;98452.53;5090686;28;20024;-59
2022/08/16 10:01:24;;;;;;;5.15;2.83;;;;;;;28.44;39.39;98450.88;5092684;28;20464;-58
2022/08/16 10:03:51;;;;;;;6.00;3.13;;;;;;;28.42;39.81;98440.06;5105205;28;20069;-58
2022/08/16 10:06:20;;;;;;;6.32;2.90;;;;;;;28.45;39.61;98450.41;5110800;28;20035;-58
2022/08/16 10:08:47;;;;;;;6.25;3.08;;;;;;;28.47;39.47;98439.50;5110810;28;20071;-58
2022/08/16 10:13:56;;;;;;;6.15;3.03;;;;;;;28.46;39.67;98431.50;5131036;28;20418;-58
2022/08/16 10:16:22;;;;;;;5.28;2.72;;;;;;;28.45;39.60;98424.31;5131070;28;20494;-58
2022/08/16 10:18:47;;;;;;;4.85;2.72;;;;;;;28.47;39.58;98422.63;5118875;28;20039;-59
2022/08/16 10:21:14;;;;;;;6.90;2.80;;;;;;;28.48;39.66;98418.56;5101871;28;20044;-58
2022/08/16 10:23:40;;;;;;;9.77;3.20;;;;;;;28.49;39.43;98416.53;5102365;28;20039;-58
2022/08/16 10:26:06;;;;;;;5.78;2.60;;;;;;;28.46;39.81;98409.78;5097696;28;20036;-58
2022/08/16 10:28:31;;;;;;;5.40;2.80;;;;;;;28.48;39.54;98404.50;5108730;28;20040;-59
2022/08/16 10:30:58;;;;;;;4.82;2.70;;;;;;;28.48;39.30;98398.88;5110147;28;20043;-58
2022/08/16 10:33:25;;;;;;;4.47;3.05;;;;;;;28.50;39.54;98402.03;5105548;28;20045;-58
2022/08/16 10:35:51;;;;;;;5.35;2.75;;;;;;;28.53;39.29;98403.16;5091307;28;20128;-58
2022/08/16 10:38:16;;;;;;;4.63;2.30;;;;;;;28.53;39.32;98405.97;5091062;28;20496;-58
2022/08/16 10:40:42;;;;;;;6.10;2.47;;;;;;;28.54;39.16;98398.31;5089601;28;20051;-58
2022/08/16 10:43:07;;;;;;;8.82;2.70;;;;;;;28.51;39.14;98394.38;5090777;28;20491;-58
2022/08/16 10:45:33;;;;;;;4.07;2.50;;;;;;;28.52;39.52;98395.94;5090113;28;20044;-58
2022/08/16 10:47:59;;;;;;;4.40;2.50;;;;;;;28.54;39.26;98396.28;5089477;28;20174;-58
2022/08/16 10:50:25;;;;;;;4.68;2.58;;;;;;;28.55;39.18;98392.22;5090483;28;20135;-58
2022/08/16 10:52:52;;;;;;;6.00;2.38;;;;;;;28.57;39.38;98389.72;5089491;28;20104;-57
2022/08/16 10:55:18;;;;;;;6.75;2.40;;;;;;;28.53;39.28;98377.81;5092202;28;20358;-59
2022/08/16 10:57:43;;;;;;;4.85;2.40;;;;;;;28.58;38.98;98384.91;5109862;28;20040;-58
2022/08/16 11:00:13;;;;;;;3.58;2.40;;;;;;;28.57;38.95;98380.50;5092646;28;20059;-58
2022/08/16 11:02:39;;;;;;;4.22;2.30;;;;;;;28.59;39.06;98375.22;5098386;28;20050;-58
2022/08/16 11:05:10;;;;;;;4.63;2.38;;;;;;;28.59;39.06;98381.66;5108407;28;20043;-58
2022/08/16 11:07:38;;;;;;;5.18;2.70;;;;;;;28.60;38.98;98376.81;5108031;28;20081;-58
2022/08/16 11:10:04;;;;;;;3.20;1.88;;;;;;;28.58;38.99;98380.06;5096112;28;20036;-58
2022/08/16 11:12:29;;;;;;;3.17;2.10;;;;;;;28.60;39.24;98365.56;5098906;28;20088;-58
2022/08/16 11:14:54;;;;;;;3.28;2.30;;;;;;;28.60;38.90;98376.81;5094067;28;20029;-58
2022/08/16 11:17:20;;;;;;;3.20;2.00;;;;;;;28.58;39.08;98368.03;5090395;28;20410;-58
2022/08/16 11:19:45;;;;;;;3.80;2.42;;;;;;;28.60;38.79;98371.19;5089344;28;20047;-58
2022/08/16 11:22:11;;;;;;;4.05;2.30;;;;;;;28.59;38.96;98361.16;5091045;28;20036;-58
2022/08/16 11:24:39;;;;;;;3.13;2.10;;;;;;;28.62;38.79;98369.47;5089383;28;20139;-58
2022/08/16 11:27:07;;;;;;;3.53;2.10;;;;;;;28.60;38.79;98362.72;5089327;28;20044;-57
2022/08/16 11:29:34;;;;;;;3.35;2.17;;;;;;;28.62;38.79;98365.88;5088891;28;20079;-59
2022/08/16 11:32:00;;;;;;;3.25;2.08;;;;;;;28.62;38.83;98354.63;5089316;28;20047;-58
2022/08/16 11:34:25;;;;;;;3.33;2.00;;;;;;;28.63;38.73;98353.38;5092993;28;20031;-58